Terminal Aerodrome Forecast
Issued by NWS

Home | Current Version | Previous Version | Graphics & Text | Print | Product List | Glossary On
Versions: 1 2 3 4 5 6 7 8 9 10 11 12 13 14 15 16 17 18 19 20 21 22
000
FTUS43 KBIS 231900 AAA
TAFDIK
TAF AMD
KDIK 231932Z 2320/2418 31024G39KT P6SM VCSH OVC019
     FM232200 30022G33KT P6SM SCT020 BKN040
     FM240100 31017KT P6SM BKN040
     FM240600 31015KT P6SM SCT090=

USA.gov is the U.S. government's official web portal to all federal, state and local government web resources and services.